• Join FlightAware (Why Join?)
  • Login
  • US Flag 
11:52PM EST


 

Airport Tracker/Info


-or-


 

Live Flight TrackerFlight Track Log ✈ NKS562 ✈ 25-Apr-2013 ✈ KLAS - KDEN

Flight Track Log - Related Links

Times and Time Zones

All times are in EDT time to prevent confusion due to time zone crossing. See the NKS562 flight status page for this flight to view local times or setup timezone preferences in your user account.

Time Position Orientation Groundspeed Altitude Reporting Facility
EDT Latitude Longitude Course Direction KTS MPH feet Rate Location/Type
11:32AM 36.0760 -115.1600 270° West 162 186 2,700  Level FlightAware
11:32AM 36.0760 -115.1750 270° West 157 181 3,500 2,100 Climbing FlightAware
11:33AM 36.0770 -115.1970 273° West 180 207 4,100 1,680 Climbing FlightAware
11:33AM 36.0770 -115.2320 270° West 223 257 4,900 1,920 Climbing FlightAware
11:34AM 36.0790 -115.2650 274° West 246 283 5,900 2,820 Climbing FlightAware
11:34AM 36.0900 -115.2820 309° West 245 282 6,800 3,360 Climbing FlightAware
11:34AM 36.1040 -115.2890 338° Northwest 243 280 7,600 3,180 Climbing FlightAware
11:35AM 36.1360 -115.2960 350° North 253 291 9,200 3,480 Climbing FlightAware
11:35AM 36.1630 -115.2760 31° Northeast 253 291 10,800 3,120 Climbing FlightAware
11:36AM 36.1880 -115.2150 63° Northeast 289 333 12,900 2,220 Climbing FlightAware
11:36AM 36.1980 -115.1730 74° East 326 375 13,400 2,100 Climbing FlightAware
11:37AM 36.1980 -115.1100 90° East 342 394 15,000 2,820 Climbing FlightAware
11:38AM 36.1980 -115.0070 90° East 360 414 17,400 2,880 Climbing FlightAware
11:38AM 36.1990 -114.9230 89° East 365 420 19,400 2,700 Climbing FlightAware
11:39AM 36.2000 -114.8260 89° East 375 432 21,300 2,400 Climbing FlightAware
11:40AM 36.2010 -114.7510 89° East 384 442 22,600 2,220 Climbing FlightAware
11:41AM 36.1990 -114.6400 91° East 394 453 24,500 2,040 Climbing FlightAware
11:41AM 36.1980 -114.5480 91° East 407 468 25,700 1,680 Climbing FlightAware
11:42AM 36.1970 -114.4550 91° East 419 482 26,800 1,800 Climbing FlightAware
11:43AM 36.1950 -114.3440 91° East 424 488 28,300 1,680 Climbing FlightAware
11:43AM 36.1940 -114.2610 91° East 433 498 29,100 1,440 Climbing FlightAware
11:44AM 36.2070 -114.1380 83° East 442 509 30,400 1,920 Climbing FlightAware
11:45AM 36.2190 -114.0370 82° East 435 501 32,000 1,860 Climbing FlightAware
11:45AM 36.2300 -113.9390 82° East 442 509 32,900 900 Climbing FlightAware
11:46AM 36.2440 -113.8200 82° East 464 534 33,300 720 Climbing FlightAware
11:47AM 36.2570 -113.7140 81° East 472 543 34,000 1,320 Climbing FlightAware
11:48AM 36.2700 -113.5960 82° East 469 540 35,200 1,320 Climbing FlightAware
11:48AM 36.2830 -113.4880 81° East 475 547 35,900 1,080 Climbing FlightAware
11:49AM 36.2970 -113.3660 82° East 477 549 36,800 720 Climbing FlightAware
11:50AM 36.3090 -113.2580 82° East 471 542 37,000 120 Climbing FlightAware
11:50AM 36.3370 -113.1580 71° East 480 552 37,000 -120 Level FlightAware
11:51AM 36.3780 -113.0480 65° Northeast 483 556 36,900  Descending FlightAware
11:52AM 36.4550 -112.8410 65° Northeast 487 560 37,000  Climbing FlightAware
11:53AM 36.4940 -112.7360 65° Northeast 488 562 37,000  Level FlightAware
11:54AM 36.5310 -112.6350 65° Northeast 490 564 37,000  Level FlightAware
11:54AM 36.5740 -112.5180 65° Northeast 491 565 37,000  Level FlightAware
11:55AM 36.6080 -112.4230 66° East 489 563 37,000  Level FlightAware
11:56AM 36.6470 -112.3190 65° Northeast 489 563 37,000  Level FlightAware
11:57AM 36.6790 -112.2320 65° Northeast 489 563 37,000  Level FlightAware
11:57AM 36.7120 -112.1450 65° Northeast 489 563 37,000  Level FlightAware
11:58AM 36.7440 -112.0580 65° Northeast 489 563 37,000  Level FlightAware
11:59AM 36.7770 -111.9710 65° Northeast 489 563 37,000  Level FlightAware
11:59AM 36.8170 -111.8630 65° Northeast 489 563 37,000  Level FlightAware
12:00PM 36.8500 -111.7750 65° Northeast 489 563 37,000  Level FlightAware
12:01PM 36.8820 -111.6880 65° Northeast 489 563 37,000  Level FlightAware
12:01PM 36.9150 -111.6010 65° Northeast 489 563 37,000  Level FlightAware
12:02PM 36.9470 -111.5140 65° Northeast 489 563 37,000  Level FlightAware
12:03PM 36.9880 -111.4050 65° Northeast 489 563 37,000  Level FlightAware
12:04PM 37.0210 -111.3180 65° Northeast 489 563 37,000  Level FlightAware
12:04PM 37.0530 -111.2300 65° Northeast 489 563 37,000  Level FlightAware
12:05PM 37.0860 -111.1430 65° Northeast 489 563 37,000  Level FlightAware
12:05PM 37.1742 -110.8303 65° Northeast 488 562 37,000 -120 Level Denver Center
12:07PM 37.2272 -110.6747 67° East 488 562 36,900 -60 Descending Denver Center
12:08PM 37.2808 -110.5186 67° East 489 563 36,900  Level Denver Center
12:09PM 37.3347 -110.3617 67° East 491 565 36,900  Level Denver Center
12:10PM 37.3983 -110.1703 67° East 494 568 37,000  Climbing Denver Center
12:11PM 37.4506 -110.0172 67° East 496 571 37,000  Level Denver Center
12:12PM 37.5025 -109.8628 67° East 498 573 37,000  Level Denver Center
12:13PM 37.5711 -109.6550 67° East 504 580 37,000 -60 Level Denver Center
12:14PM 37.6311 -109.4747 67° East 500 575 36,900  Descending Denver Center
12:15PM 37.6825 -109.3192 67° East 500 575 37,000  Climbing Denver Center
12:16PM 37.7417 -109.1381 68° East 500 575 37,000 -60 Level Denver Center
12:17PM 37.7919 -108.9850 67° East 494 568 36,900 -60 Descending Denver Center
12:18PM 37.8553 -108.8383 61° Northeast 497 572 36,900  Level Denver Center
12:19PM 37.9375 -108.6700 58° Northeast 503 579 37,000  Climbing Denver Center
12:20PM 38.0069 -108.5242 59° Northeast 504 580 37,000  Level Denver Center
12:21PM 38.0842 -108.3625 59° Northeast 509 586 37,000  Level Denver Center
12:22PM 38.1669 -108.1919 58° Northeast 510 587 37,000 -60 Level Denver Center
12:28PM 38.5649 -107.3430 58° Northeast 513 590 36,700 -180 Descending FlightAware ADS-B
12:28PM 38.5997 -107.2660 60° Northeast 510 587 36,200 -1,020 Descending FlightAware ADS-B
12:31PM 38.7683 -106.8860 60° Northeast 516 594 33,800 -1,020 Descending FlightAware ADS-B
12:31PM 38.8045 -106.8040 60° Northeast 522 601 33,300 -1,020 Descending FlightAware ADS-B
12:32PM 38.8412 -106.7210 60° Northeast 523 602 32,800 -1,020 Descending FlightAware ADS-B
12:32PM 38.8774 -106.6380 61° Northeast 525 604 32,300 -1,080 Descending FlightAware ADS-B
12:33PM 38.9185 -106.5490 59° Northeast 518 596 31,700 -1,080 Descending FlightAware ADS-B
12:33PM 38.9566 -106.4680 59° Northeast 514 592 31,200 -1,140 Descending FlightAware ADS-B
12:34PM 38.9931 -106.3900 59° Northeast 509 586 30,600 -1,620 Descending FlightAware ADS-B
12:34PM 39.0325 -106.3040 59° Northeast 507 583 29,500 -2,100 Descending FlightAware ADS-B
12:35PM 39.0673 -106.2270 60° Northeast 490 564 28,400 -2,280 Descending FlightAware ADS-B
12:35PM 39.1019 -106.1500 60° Northeast 481 554 27,200 -2,280 Descending FlightAware ADS-B
12:36PM 39.1357 -106.0750 60° Northeast 474 545 26,100 -2,100 Descending FlightAware ADS-B
12:36PM 39.1686 -106.0000 60° Northeast 462 532 25,100 -1,980 Descending FlightAware ADS-B
12:37PM 39.2004 -105.9280 60° Northeast 450 518 24,100 -2,220 Descending FlightAware ADS-B
12:37PM 39.2314 -105.8580 60° Northeast 445 512 22,900 -2,220 Descending FlightAware ADS-B
12:38PM 39.2618 -105.7890 60° Northeast 441 507 21,900 -1,980 Descending FlightAware ADS-B
12:38PM 39.2933 -105.7170 61° Northeast 431 496 20,900 -1,800 Descending FlightAware ADS-B
12:39PM 39.3225 -105.6500 61° Northeast 415 478 20,100 -1,920 Descending FlightAware ADS-B
12:39PM 39.3500 -105.5870 61° Northeast 410 472 19,000 -1,740 Descending FlightAware ADS-B
12:40PM 39.3753 -105.5290 61° Northeast 393 452 18,500 -1,080 Descending FlightAware ADS-B
12:40PM 39.3802 -105.5140 67° East 390 449 18,400 -960 Descending FlightAware ADS-B
12:40PM 39.3833 -105.5000 74° East 385 443 18,300 -1,020 Descending FlightAware ADS-B
12:40PM 39.3848 -105.4860 82° East 380 437 18,200 -1,380 Descending FlightAware ADS-B
12:41PM 39.3869 -105.4200 88° East 373 429 17,500 -1,320 Descending FlightAware ADS-B
12:41PM 39.3887 -105.3530 88° East 366 421 16,900 -1,200 Descending FlightAware ADS-B
12:41PM 39.3888 -105.3430 89° East 362 417 16,800 -1,020 Descending FlightAware ADS-B
12:41PM 39.3876 -105.3160 93° East 353 406 16,600 -780 Descending FlightAware ADS-B
12:42PM 39.3842 -105.2780 97° East 344 396 16,400 -900 Descending FlightAware ADS-B
12:42PM 39.3777 -105.2170 98° East 339 390 15,900 -600 Descending FlightAware ADS-B
12:43PM 39.3712 -105.1560 98° East 340 391 15,800  Descending FlightAware ADS-B
12:43PM 39.3670 -105.1170 98° East 341 392 15,900 180 Climbing FlightAware ADS-B
12:43PM 39.3662 -105.1030 94° East 340 391 15,900 -480 Level FlightAware ADS-B
12:43PM 39.3661 -105.0900 91° East 339 390 15,800 -1,200 Descending FlightAware ADS-B
12:44PM 39.3670 -105.0300 89° East 333 383 15,200 -1,200 Descending FlightAware ADS-B
12:44PM 39.3676 -104.9720 89° East 327 376 14,600 -840 Descending FlightAware ADS-B
12:45PM 39.3681 -104.9190 89° East 311 358 14,400 -660 Descending FlightAware ADS-B
12:45PM 39.3683 -104.8650 90° East 293 337 14,000 -1,020 Descending FlightAware ADS-B
12:46PM 39.3688 -104.8220 89° East 290 334 13,500 -1,440 Descending FlightAware ADS-B
12:46PM 39.3750 -104.7980 72° East 287 330 13,100 -1,440 Descending FlightAware ADS-B
12:46PM 39.3836 -104.7850 49° Northeast 279 321 12,900 -1,200 Descending FlightAware ADS-B
12:46PM 39.3936 -104.7750 38° Northeast 274 315 12,700 -1,080 Descending FlightAware ADS-B
12:47PM 39.4250 -104.7470 35° Northeast 268 308 12,200 -1,140 Descending FlightAware ADS-B
12:47PM 39.4563 -104.7200 34° Northeast 267 307 11,600 -1,200 Descending FlightAware ADS-B
12:48PM 39.4866 -104.6930 35° Northeast 263 303 11,000 -1,140 Descending FlightAware ADS-B
12:48PM 39.5156 -104.6700 31° Northeast 255 293 10,500 -1,080 Descending FlightAware ADS-B
12:48PM 39.5215 -104.6670 21° North 253 291 10,400 -1,200 Descending FlightAware ADS-B
12:48PM 39.5320 -104.6650 North 249 287 10,200 -1,020 Descending FlightAware ADS-B
12:49PM 39.5496 -104.6640 North 246 283 10,000 -1,200 Descending FlightAware ADS-B
12:49PM 39.5658 -104.6640 360° North 247 284 9,600 -1,440 Descending FlightAware ADS-B
12:49PM 39.5834 -104.6630 North 247 284 9,300 -1,020 Descending FlightAware ADS-B
12:49PM 39.6013 -104.6630 360° North 241 277 9,100 -780 Descending FlightAware ADS-B
12:50PM 39.6186 -104.6630 360° North 239 275 8,900 -420 Descending FlightAware ADS-B
12:50PM 39.6352 -104.6630 360° North 240 276 8,900 -540 Level FlightAware ADS-B
12:50PM 39.6578 -104.6630 360° North 242 278 8,600 -1,020 Descending FlightAware ADS-B
12:51PM 39.6755 -104.6620 North 240 276 8,300 -1,200 Descending FlightAware ADS-B
12:51PM 39.6923 -104.6620 360° North 230 265 8,000 -1,320 Descending FlightAware ADS-B
12:51PM 39.7099 -104.6620 360° North 228 262 7,600 -1,500 Descending FlightAware ADS-B
12:51PM 39.7228 -104.6620 360° North 223 257 7,300 -1,260 Descending FlightAware ADS-B
12:52PM 39.7393 -104.6620 360° North 214 246 7,000 -1,020 Descending FlightAware ADS-B
12:52PM 39.7589 -104.6610 North 208 239 6,700 -1,080 Descending FlightAware ADS-B
12:52PM 39.7728 -104.6610 360° North 201 231 6,400 -1,140 Descending FlightAware ADS-B
12:52PM 39.7879 -104.6610 360° North 189 217 6,100 -1,140 Descending FlightAware ADS-B
12:53PM 39.7971 -104.6610 360° North 191 220 5,900 -900 Descending FlightAware ADS-B
12:53PM 39.8052 -104.6610 360° North 180 207 5,800 -720 Descending FlightAware ADS-B
12:53PM 39.8121 -104.6610 360° North 174 200 5,700 -1,080 Descending FlightAware ADS-B
12:53PM 39.8230 -104.6610 360° North 157 181 5,400 -960 Descending FlightAware ADS-B
12:53PM 39.8350 -104.6610 360° North 141 162 5,200 -720 Descending FlightAware ADS-B